sensor_id;sensor_type;location;lat;lon;timestamp;temperature;humidity
19152;DHT22;9708;53.114;9.388;2023-08-30T00:01:26;12.60;99.90
19152;DHT22;9708;53.114;9.388;2023-08-30T00:03:54;12.60;99.90
19152;DHT22;9708;53.114;9.388;2023-08-30T00:06:21;12.60;99.90
19152;DHT22;9708;53.114;9.388;2023-08-30T00:08:48;12.60;99.90
19152;DHT22;9708;53.114;9.388;2023-08-30T00:11:16;12.50;99.90
19152;DHT22;9708;53.114;9.388;2023-08-30T00:13:42;12.50;99.90
19152;DHT22;9708;53.114;9.388;2023-08-30T00:16:09;12.50;99.90
19152;DHT22;9708;53.114;9.388;2023-08-30T00:18:36;12.40;99.90
19152;DHT22;9708;53.114;9.388;2023-08-30T00:21:04;12.40;99.90
19152;DHT22;9708;53.114;9.388;2023-08-30T00:23:32;12.30;99.90
19152;DHT22;9708;53.114;9.388;2023-08-30T00:25:59;12.30;99.90
19152;DHT22;9708;53.114;9.388;2023-08-30T00:28:26;12.30;99.90
19152;DHT22;9708;53.114;9.388;2023-08-30T00:30:53;12.20;99.90
19152;DHT22;9708;53.114;9.388;2023-08-30T00:33:20;12.20;99.90
19152;DHT22;9708;53.114;9.388;2023-08-30T00:35:54;12.20;99.90
19152;DHT22;9708;53.114;9.388;2023-08-30T00:38:22;12.20;99.90
19152;DHT22;9708;53.114;9.388;2023-08-30T00:40:49;12.20;99.90
19152;DHT22;9708;53.114;9.388;2023-08-30T00:43:16;12.20;99.90
19152;DHT22;9708;53.114;9.388;2023-08-30T00:45:43;12.20;99.90
19152;DHT22;9708;53.114;9.388;2023-08-30T00:48:10;12.20;99.90
19152;DHT22;9708;53.114;9.388;2023-08-30T00:50:37;12.20;99.90
19152;DHT22;9708;53.114;9.388;2023-08-30T00:53:05;12.20;99.90
19152;DHT22;9708;53.114;9.388;2023-08-30T00:55:34;12.30;99.90
19152;DHT22;9708;53.114;9.388;2023-08-30T00:58:01;12.30;99.90
19152;DHT22;9708;53.114;9.388;2023-08-30T01:00:29;12.30;99.90
19152;DHT22;9708;53.114;9.388;2023-08-30T01:02:56;12.40;99.90
19152;DHT22;9708;53.114;9.388;2023-08-30T01:05:23;12.40;99.90
19152;DHT22;9708;53.114;9.388;2023-08-30T01:07:51;12.40;99.90
19152;DHT22;9708;53.114;9.388;2023-08-30T01:10:18;12.40;99.90
19152;DHT22;9708;53.114;9.388;2023-08-30T01:12:54;12.40;99.90
19152;DHT22;9708;53.114;9.388;2023-08-30T01:15:26;12.30;99.90
19152;DHT22;9708;53.114;9.388;2023-08-30T01:17:54;12.30;99.90
19152;DHT22;9708;53.114;9.388;2023-08-30T01:20:23;12.40;99.90
19152;DHT22;9708;53.114;9.388;2023-08-30T01:22:57;12.50;99.90
19152;DHT22;9708;53.114;9.388;2023-08-30T01:25:32;12.40;99.90
19152;DHT22;9708;53.114;9.388;2023-08-30T01:28:05;12.50;99.90
19152;DHT22;9708;53.114;9.388;2023-08-30T01:30:34;12.50;99.90
19152;DHT22;9708;53.114;9.388;2023-08-30T01:33:03;12.50;99.90
19152;DHT22;9708;53.114;9.388;2023-08-30T01:35:31;12.50;99.90
19152;DHT22;9708;53.114;9.388;2023-08-30T01:38:02;12.50;99.90
19152;DHT22;9708;53.114;9.388;2023-08-30T01:40:36;12.60;99.90
19152;DHT22;9708;53.114;9.388;2023-08-30T01:43:05;12.70;99.90
19152;DHT22;9708;53.114;9.388;2023-08-30T01:45:34;12.70;99.90
19152;DHT22;9708;53.114;9.388;2023-08-30T01:48:03;12.70;99.90
19152;DHT22;9708;53.114;9.388;2023-08-30T01:50:31;12.80;99.90
19152;DHT22;9708;53.114;9.388;2023-08-30T01:52:59;12.80;99.90
19152;DHT22;9708;53.114;9.388;2023-08-30T01:55:28;12.80;99.90
19152;DHT22;9708;53.114;9.388;2023-08-30T01:57:55;12.70;99.90
19152;DHT22;9708;53.114;9.388;2023-08-30T02:00:25;12.70;99.90
19152;DHT22;9708;53.114;9.388;2023-08-30T02:02:52;12.70;99.90
19152;DHT22;9708;53.114;9.388;2023-08-30T02:05:18;12.60;99.90
19152;DHT22;9708;53.114;9.388;2023-08-30T02:07:54;12.60;99.90
19152;DHT22;9708;53.114;9.388;2023-08-30T02:10:23;12.60;99.90
19152;DHT22;9708;53.114;9.388;2023-08-30T02:12:53;12.60;99.90
19152;DHT22;9708;53.114;9.388;2023-08-30T02:15:21;12.60;99.90
19152;DHT22;9708;53.114;9.388;2023-08-30T02:17:51;12.60;99.90
19152;DHT22;9708;53.114;9.388;2023-08-30T02:20:18;12.60;99.90
19152;DHT22;9708;53.114;9.388;2023-08-30T02:22:45;12.60;99.90
19152;DHT22;9708;53.114;9.388;2023-08-30T02:25:12;12.60;99.90
19152;DHT22;9708;53.114;9.388;2023-08-30T02:27:39;12.60;99.90
19152;DHT22;9708;53.114;9.388;2023-08-30T02:30:06;12.60;99.90
19152;DHT22;9708;53.114;9.388;2023-08-30T02:32:33;12.60;99.90
19152;DHT22;9708;53.114;9.388;2023-08-30T02:35:02;12.60;99.90
19152;DHT22;9708;53.114;9.388;2023-08-30T02:37:29;12.60;99.90
19152;DHT22;9708;53.114;9.388;2023-08-30T02:39:55;12.60;99.90
19152;DHT22;9708;53.114;9.388;2023-08-30T02:42:22;12.60;99.90
19152;DHT22;9708;53.114;9.388;2023-08-30T02:44:50;12.60;99.90
19152;DHT22;9708;53.114;9.388;2023-08-30T02:47:17;12.60;99.90
19152;DHT22;9708;53.114;9.388;2023-08-30T02:49:43;12.60;99.90
19152;DHT22;9708;53.114;9.388;2023-08-30T02:52:12;12.60;99.90
19152;DHT22;9708;53.114;9.388;2023-08-30T02:54:39;12.60;99.90
19152;DHT22;9708;53.114;9.388;2023-08-30T02:57:05;12.60;99.90
19152;DHT22;9708;53.114;9.388;2023-08-30T02:59:32;12.60;99.90
19152;DHT22;9708;53.114;9.388;2023-08-30T03:01:59;12.60;99.90
19152;DHT22;9708;53.114;9.388;2023-08-30T03:04:26;12.60;99.90
19152;DHT22;9708;53.114;9.388;2023-08-30T03:06:53;12.50;99.90
19152;DHT22;9708;53.114;9.388;2023-08-30T03:09:21;12.50;99.90
19152;DHT22;9708;53.114;9.388;2023-08-30T03:11:48;12.60;99.90
19152;DHT22;9708;53.114;9.388;2023-08-30T03:14:15;12.60;99.90
19152;DHT22;9708;53.114;9.388;2023-08-30T03:16:42;12.60;99.90
19152;DHT22;9708;53.114;9.388;2023-08-30T03:19:10;12.60;99.90
19152;DHT22;9708;53.114;9.388;2023-08-30T03:21:37;12.60;99.90
19152;DHT22;9708;53.114;9.388;2023-08-30T03:24:04;12.50;99.90
19152;DHT22;9708;53.114;9.388;2023-08-30T03:26:32;12.60;99.90
19152;DHT22;9708;53.114;9.388;2023-08-30T03:28:59;12.60;99.90
19152;DHT22;9708;53.114;9.388;2023-08-30T03:31:26;12.60;99.90
19152;DHT22;9708;53.114;9.388;2023-08-30T03:33:53;12.60;99.90
19152;DHT22;9708;53.114;9.388;2023-08-30T03:36:19;12.50;99.90
19152;DHT22;9708;53.114;9.388;2023-08-30T03:38:46;12.50;99.90
19152;DHT22;9708;53.114;9.388;2023-08-30T03:41:13;12.60;99.90
19152;DHT22;9708;53.114;9.388;2023-08-30T03:43:42;12.60;99.90
19152;DHT22;9708;53.114;9.388;2023-08-30T03:46:09;12.60;99.90
19152;DHT22;9708;53.114;9.388;2023-08-30T03:48:37;12.60;99.90
19152;DHT22;9708;53.114;9.388;2023-08-30T03:51:04;12.60;99.90
19152;DHT22;9708;53.114;9.388;2023-08-30T03:53:30;12.80;99.90
19152;DHT22;9708;53.114;9.388;2023-08-30T03:55:57;12.80;99.90
19152;DHT22;9708;53.114;9.388;2023-08-30T03:58:25;12.80;99.90
19152;DHT22;9708;53.114;9.388;2023-08-30T04:00:53;12.80;99.90
19152;DHT22;9708;53.114;9.388;2023-08-30T04:03:20;12.90;99.90
19152;DHT22;9708;53.114;9.388;2023-08-30T04:05:47;12.90;99.90
19152;DHT22;9708;53.114;9.388;2023-08-30T04:08:14;12.90;99.90
19152;DHT22;9708;53.114;9.388;2023-08-30T04:10:41;12.90;99.90
19152;DHT22;9708;53.114;9.388;2023-08-30T04:13:09;12.90;99.90
19152;DHT22;9708;53.114;9.388;2023-08-30T04:15:36;12.90;99.90
19152;DHT22;9708;53.114;9.388;2023-08-30T04:18:06;13.00;99.90
19152;DHT22;9708;53.114;9.388;2023-08-30T04:20:33;13.00;99.90
19152;DHT22;9708;53.114;9.388;2023-08-30T04:23:01;13.00;99.90
19152;DHT22;9708;53.114;9.388;2023-08-30T04:25:28;13.00;99.90
19152;DHT22;9708;53.114;9.388;2023-08-30T04:27:55;13.00;99.90
19152;DHT22;9708;53.114;9.388;2023-08-30T04:30:22;13.00;99.90
19152;DHT22;9708;53.114;9.388;2023-08-30T04:32:49;13.00;99.90
19152;DHT22;9708;53.114;9.388;2023-08-30T04:35:17;13.00;99.90
19152;DHT22;9708;53.114;9.388;2023-08-30T04:37:44;13.00;99.90
19152;DHT22;9708;53.114;9.388;2023-08-30T04:40:10;13.00;99.90
19152;DHT22;9708;53.114;9.388;2023-08-30T04:42:38;13.00;99.90
19152;DHT22;9708;53.114;9.388;2023-08-30T04:45:07;13.00;99.90
19152;DHT22;9708;53.114;9.388;2023-08-30T04:47:35;13.00;99.90
19152;DHT22;9708;53.114;9.388;2023-08-30T04:50:02;13.10;99.90
19152;DHT22;9708;53.114;9.388;2023-08-30T04:52:30;13.10;99.90
19152;DHT22;9708;53.114;9.388;2023-08-30T04:54:57;13.10;99.90
19152;DHT22;9708;53.114;9.388;2023-08-30T04:57:24;13.20;99.90
19152;DHT22;9708;53.114;9.388;2023-08-30T04:59:51;13.30;99.90
19152;DHT22;9708;53.114;9.388;2023-08-30T05:02:17;13.40;99.90
19152;DHT22;9708;53.114;9.388;2023-08-30T05:04:44;13.50;99.90
19152;DHT22;9708;53.114;9.388;2023-08-30T05:07:11;13.60;99.90
19152;DHT22;9708;53.114;9.388;2023-08-30T05:09:39;13.60;99.90
19152;DHT22;9708;53.114;9.388;2023-08-30T05:12:07;13.70;99.90
19152;DHT22;9708;53.114;9.388;2023-08-30T05:14:34;13.70;99.90
19152;DHT22;9708;53.114;9.388;2023-08-30T05:17:01;13.80;99.90
19152;DHT22;9708;53.114;9.388;2023-08-30T05:19:29;13.80;99.90
19152;DHT22;9708;53.114;9.388;2023-08-30T05:21:55;13.80;99.90
19152;DHT22;9708;53.114;9.388;2023-08-30T05:24:22;13.90;99.90
19152;DHT22;9708;53.114;9.388;2023-08-30T05:26:51;13.90;99.90
19152;DHT22;9708;53.114;9.388;2023-08-30T05:29:18;13.90;99.90
19152;DHT22;9708;53.114;9.388;2023-08-30T05:31:44;13.90;99.90
19152;DHT22;9708;53.114;9.388;2023-08-30T05:34:11;14.00;99.90
19152;DHT22;9708;53.114;9.388;2023-08-30T05:36:38;14.10;99.90
19152;DHT22;9708;53.114;9.388;2023-08-30T05:39:05;14.20;99.90
19152;DHT22;9708;53.114;9.388;2023-08-30T05:41:32;14.20;99.90
19152;DHT22;9708;53.114;9.388;2023-08-30T05:44:00;14.10;99.90
19152;DHT22;9708;53.114;9.388;2023-08-30T05:46:28;14.20;99.90
19152;DHT22;9708;53.114;9.388;2023-08-30T05:48:55;14.20;99.90
19152;DHT22;9708;53.114;9.388;2023-08-30T05:51:21;14.30;99.90
19152;DHT22;9708;53.114;9.388;2023-08-30T05:53:48;14.50;99.90
19152;DHT22;9708;53.114;9.388;2023-08-30T05:56:15;14.50;99.90
19152;DHT22;9708;53.114;9.388;2023-08-30T05:58:42;14.50;99.90
19152;DHT22;9708;53.114;9.388;2023-08-30T06:01:10;14.70;99.90
19152;DHT22;9708;53.114;9.388;2023-08-30T06:03:37;14.60;99.90
19152;DHT22;9708;53.114;9.388;2023-08-30T06:06:05;14.60;99.90
19152;DHT22;9708;53.114;9.388;2023-08-30T06:08:32;14.70;99.90
19152;DHT22;9708;53.114;9.388;2023-08-30T06:10:58;14.80;99.90
19152;DHT22;9708;53.114;9.388;2023-08-30T06:13:25;14.90;99.90
19152;DHT22;9708;53.114;9.388;2023-08-30T06:15:52;14.90;99.90
19152;DHT22;9708;53.114;9.388;2023-08-30T06:18:20;15.10;99.90
19152;DHT22;9708;53.114;9.388;2023-08-30T06:20:47;15.40;99.90
19152;DHT22;9708;53.114;9.388;2023-08-30T06:23:14;15.80;99.90
19152;DHT22;9708;53.114;9.388;2023-08-30T06:25:41;15.80;99.90
19152;DHT22;9708;53.114;9.388;2023-08-30T06:28:08;15.80;99.90
19152;DHT22;9708;53.114;9.388;2023-08-30T06:30:35;15.80;99.90
19152;DHT22;9708;53.114;9.388;2023-08-30T06:33:03;15.60;99.90
19152;DHT22;9708;53.114;9.388;2023-08-30T06:35:32;15.60;99.90
19152;DHT22;9708;53.114;9.388;2023-08-30T06:37:59;15.70;99.90
19152;DHT22;9708;53.114;9.388;2023-08-30T06:40:25;15.60;99.90
19152;DHT22;9708;53.114;9.388;2023-08-30T06:42:52;15.60;99.90
19152;DHT22;9708;53.114;9.388;2023-08-30T06:45:19;15.50;99.90
19152;DHT22;9708;53.114;9.388;2023-08-30T06:47:48;15.50;99.90
19152;DHT22;9708;53.114;9.388;2023-08-30T06:50:14;15.70;99.90
19152;DHT22;9708;53.114;9.388;2023-08-30T06:52:43;15.80;99.90
19152;DHT22;9708;53.114;9.388;2023-08-30T06:55:09;16.00;99.90
19152;DHT22;9708;53.114;9.388;2023-08-30T06:57:36;15.90;99.90
19152;DHT22;9708;53.114;9.388;2023-08-30T07:00:04;15.90;99.90
19152;DHT22;9708;53.114;9.388;2023-08-30T07:02:33;16.10;99.90
19152;DHT22;9708;53.114;9.388;2023-08-30T07:04:59;16.20;99.90
19152;DHT22;9708;53.114;9.388;2023-08-30T07:07:26;16.40;99.90
19152;DHT22;9708;53.114;9.388;2023-08-30T07:09:55;16.40;99.90
19152;DHT22;9708;53.114;9.388;2023-08-30T07:12:22;16.50;99.90
19152;DHT22;9708;53.114;9.388;2023-08-30T07:14:49;16.80;99.90
19152;DHT22;9708;53.114;9.388;2023-08-30T07:17:15;17.10;99.90
19152;DHT22;9708;53.114;9.388;2023-08-30T07:19:42;17.00;99.90
19152;DHT22;9708;53.114;9.388;2023-08-30T07:22:09;17.00;99.90
19152;DHT22;9708;53.114;9.388;2023-08-30T07:24:36;17.10;99.90
19152;DHT22;9708;53.114;9.388;2023-08-30T07:27:05;16.80;99.90
19152;DHT22;9708;53.114;9.388;2023-08-30T07:29:32;16.90;99.90
19152;DHT22;9708;53.114;9.388;2023-08-30T07:31:59;17.10;99.90
19152;DHT22;9708;53.114;9.388;2023-08-30T07:34:26;17.30;99.90
19152;DHT22;9708;53.114;9.388;2023-08-30T07:36:54;17.10;99.90
19152;DHT22;9708;53.114;9.388;2023-08-30T07:39:20;17.20;99.90
19152;DHT22;9708;53.114;9.388;2023-08-30T07:41:47;17.40;99.90
19152;DHT22;9708;53.114;9.388;2023-08-30T07:44:15;17.60;99.90
19152;DHT22;9708;53.114;9.388;2023-08-30T07:46:42;17.90;99.90
19152;DHT22;9708;53.114;9.388;2023-08-30T07:49:09;18.10;99.90
19152;DHT22;9708;53.114;9.388;2023-08-30T07:51:36;18.10;99.90
19152;DHT22;9708;53.114;9.388;2023-08-30T07:54:03;18.40;99.90
19152;DHT22;9708;53.114;9.388;2023-08-30T07:56:30;18.70;99.90
19152;DHT22;9708;53.114;9.388;2023-08-30T07:58:57;18.50;99.90
19152;DHT22;9708;53.114;9.388;2023-08-30T08:01:25;19.00;99.90
19152;DHT22;9708;53.114;9.388;2023-08-30T08:03:52;19.40;99.90
19152;DHT22;9708;53.114;9.388;2023-08-30T08:06:19;19.50;99.90
19152;DHT22;9708;53.114;9.388;2023-08-30T08:08:46;18.90;99.90
19152;DHT22;9708;53.114;9.388;2023-08-30T08:11:12;18.80;99.90
19152;DHT22;9708;53.114;9.388;2023-08-30T08:13:39;18.70;99.90
19152;DHT22;9708;53.114;9.388;2023-08-30T08:16:07;18.60;99.90
19152;DHT22;9708;53.114;9.388;2023-08-30T08:18:35;18.60;99.90
19152;DHT22;9708;53.114;9.388;2023-08-30T08:21:02;18.60;99.90
19152;DHT22;9708;53.114;9.388;2023-08-30T08:23:29;18.80;99.90
19152;DHT22;9708;53.114;9.388;2023-08-30T08:25:59;19.20;99.90
19152;DHT22;9708;53.114;9.388;2023-08-30T08:28:26;19.60;99.90
19152;DHT22;9708;53.114;9.388;2023-08-30T08:30:52;20.20;99.90
19152;DHT22;9708;53.114;9.388;2023-08-30T08:33:19;20.50;99.90
19152;DHT22;9708;53.114;9.388;2023-08-30T08:35:49;20.80;99.90
19152;DHT22;9708;53.114;9.388;2023-08-30T08:38:16;20.60;99.90
19152;DHT22;9708;53.114;9.388;2023-08-30T08:40:43;20.90;99.90
19152;DHT22;9708;53.114;9.388;2023-08-30T08:43:10;20.90;99.90
19152;DHT22;9708;53.114;9.388;2023-08-30T08:45:38;20.30;99.90
19152;DHT22;9708;53.114;9.388;2023-08-30T08:48:06;20.30;99.90
19152;DHT22;9708;53.114;9.388;2023-08-30T08:50:33;20.50;99.90
19152;DHT22;9708;53.114;9.388;2023-08-30T08:53:01;20.80;99.90
19152;DHT22;9708;53.114;9.388;2023-08-30T08:55:29;20.80;99.90
19152;DHT22;9708;53.114;9.388;2023-08-30T08:57:57;21.40;99.90
19152;DHT22;9708;53.114;9.388;2023-08-30T09:00:25;21.90;99.90
19152;DHT22;9708;53.114;9.388;2023-08-30T09:02:53;21.90;99.90
19152;DHT22;9708;53.114;9.388;2023-08-30T09:05:20;21.80;99.90
19152;DHT22;9708;53.114;9.388;2023-08-30T09:07:48;22.00;99.90
19152;DHT22;9708;53.114;9.388;2023-08-30T09:10:20;22.30;99.90
19152;DHT22;9708;53.114;9.388;2023-08-30T09:12:47;22.20;99.90
19152;DHT22;9708;53.114;9.388;2023-08-30T09:15:14;22.30;99.90
19152;DHT22;9708;53.114;9.388;2023-08-30T09:17:41;22.20;99.90
19152;DHT22;9708;53.114;9.388;2023-08-30T09:20:09;21.80;99.90
19152;DHT22;9708;53.114;9.388;2023-08-30T09:22:37;21.70;99.90
19152;DHT22;9708;53.114;9.388;2023-08-30T09:25:05;22.30;99.90
19152;DHT22;9708;53.114;9.388;2023-08-30T09:27:34;22.00;99.90
19152;DHT22;9708;53.114;9.388;2023-08-30T09:30:02;21.80;99.90
19152;DHT22;9708;53.114;9.388;2023-08-30T09:32:29;21.70;99.90
19152;DHT22;9708;53.114;9.388;2023-08-30T09:34:56;22.00;99.90
19152;DHT22;9708;53.114;9.388;2023-08-30T09:37:23;22.10;99.90
19152;DHT22;9708;53.114;9.388;2023-08-30T09:39:52;22.70;99.90
19152;DHT22;9708;53.114;9.388;2023-08-30T09:42:19;23.10;99.90
19152;DHT22;9708;53.114;9.388;2023-08-30T09:44:47;23.30;99.90
19152;DHT22;9708;53.114;9.388;2023-08-30T09:47:14;23.80;99.90
19152;DHT22;9708;53.114;9.388;2023-08-30T09:49:43;23.40;99.90
19152;DHT22;9708;53.114;9.388;2023-08-30T09:52:12;23.30;99.90
19152;DHT22;9708;53.114;9.388;2023-08-30T09:54:41;23.30;99.90
19152;DHT22;9708;53.114;9.388;2023-08-30T09:57:09;23.70;99.90
19152;DHT22;9708;53.114;9.388;2023-08-30T09:59:37;23.70;99.90
19152;DHT22;9708;53.114;9.388;2023-08-30T10:02:08;24.00;99.90
19152;DHT22;9708;53.114;9.388;2023-08-30T10:04:38;24.20;99.90
19152;DHT22;9708;53.114;9.388;2023-08-30T10:07:07;23.80;99.90
19152;DHT22;9708;53.114;9.388;2023-08-30T10:09:33;23.40;99.90
19152;DHT22;9708;53.114;9.388;2023-08-30T10:12:01;23.90;99.90
19152;DHT22;9708;53.114;9.388;2023-08-30T10:14:29;24.00;99.90
19152;DHT22;9708;53.114;9.388;2023-08-30T10:17:01;24.50;99.90
19152;DHT22;9708;53.114;9.388;2023-08-30T10:19:30;24.70;99.90
19152;DHT22;9708;53.114;9.388;2023-08-30T10:22:01;23.70;99.90
19152;DHT22;9708;53.114;9.388;2023-08-30T10:24:30;23.70;99.90
19152;DHT22;9708;53.114;9.388;2023-08-30T10:26:59;24.50;99.90
19152;DHT22;9708;53.114;9.388;2023-08-30T10:29:28;24.70;99.90
19152;DHT22;9708;53.114;9.388;2023-08-30T10:31:55;24.10;99.90
19152;DHT22;9708;53.114;9.388;2023-08-30T10:34:22;23.50;99.90
19152;DHT22;9708;53.114;9.388;2023-08-30T10:37:07;23.40;99.90
19152;DHT22;9708;53.114;9.388;2023-08-30T10:39:36;23.10;99.90
19152;DHT22;9708;53.114;9.388;2023-08-30T10:42:08;23.20;99.90
19152;DHT22;9708;53.114;9.388;2023-08-30T10:44:46;23.00;99.90
19152;DHT22;9708;53.114;9.388;2023-08-30T10:47:18;23.40;99.90
19152;DHT22;9708;53.114;9.388;2023-08-30T10:49:47;24.10;99.90
19152;DHT22;9708;53.114;9.388;2023-08-30T10:52:15;24.90;99.90
19152;DHT22;9708;53.114;9.388;2023-08-30T10:54:42;25.10;99.90
19152;DHT22;9708;53.114;9.388;2023-08-30T10:57:15;25.10;99.90
19152;DHT22;9708;53.114;9.388;2023-08-30T11:00:04;24.10;99.90
19152;DHT22;9708;53.114;9.388;2023-08-30T11:02:32;23.90;99.90
19152;DHT22;9708;53.114;9.388;2023-08-30T11:04:59;24.20;99.90
19152;DHT22;9708;53.114;9.388;2023-08-30T11:07:29;23.90;99.90
19152;DHT22;9708;53.114;9.388;2023-08-30T11:09:56;23.20;99.90
19152;DHT22;9708;53.114;9.388;2023-08-30T11:12:22;22.20;99.90
19152;DHT22;9708;53.114;9.388;2023-08-30T11:14:51;22.40;99.90
19152;DHT22;9708;53.114;9.388;2023-08-30T11:17:18;22.40;99.90
19152;DHT22;9708;53.114;9.388;2023-08-30T11:19:45;22.20;99.90
19152;DHT22;9708;53.114;9.388;2023-08-30T11:22:12;22.20;99.90
19152;DHT22;9708;53.114;9.388;2023-08-30T11:24:41;21.90;99.90
19152;DHT22;9708;53.114;9.388;2023-08-30T11:27:07;21.80;99.90
19152;DHT22;9708;53.114;9.388;2023-08-30T11:29:34;21.30;99.90
19152;DHT22;9708;53.114;9.388;2023-08-30T11:32:01;21.50;99.90
19152;DHT22;9708;53.114;9.388;2023-08-30T11:34:28;21.90;99.90
19152;DHT22;9708;53.114;9.388;2023-08-30T11:36:55;21.90;99.90
19152;DHT22;9708;53.114;9.388;2023-08-30T11:39:21;21.90;99.90
19152;DHT22;9708;53.114;9.388;2023-08-30T11:41:51;22.10;99.90
19152;DHT22;9708;53.114;9.388;2023-08-30T11:44:17;22.30;99.90
19152;DHT22;9708;53.114;9.388;2023-08-30T11:46:45;22.50;99.90
19152;DHT22;9708;53.114;9.388;2023-08-30T11:49:12;22.50;99.90
19152;DHT22;9708;53.114;9.388;2023-08-30T11:51:40;22.50;99.90
19152;DHT22;9708;53.114;9.388;2023-08-30T11:54:07;22.40;99.90
19152;DHT22;9708;53.114;9.388;2023-08-30T11:56:34;22.40;99.90
19152;DHT22;9708;53.114;9.388;2023-08-30T11:59:03;22.70;99.90
19152;DHT22;9708;53.114;9.388;2023-08-30T12:01:31;23.50;99.90
19152;DHT22;9708;53.114;9.388;2023-08-30T12:03:58;23.80;99.90
19152;DHT22;9708;53.114;9.388;2023-08-30T12:06:34;23.60;99.90
19152;DHT22;9708;53.114;9.388;2023-08-30T12:09:01;23.60;99.90
19152;DHT22;9708;53.114;9.388;2023-08-30T12:11:31;23.20;99.90
19152;DHT22;9708;53.114;9.388;2023-08-30T12:14:03;23.20;99.90
19152;DHT22;9708;53.114;9.388;2023-08-30T12:16:30;24.00;99.90
19152;DHT22;9708;53.114;9.388;2023-08-30T12:19:07;24.40;99.90
19152;DHT22;9708;53.114;9.388;2023-08-30T12:21:39;24.40;99.90
19152;DHT22;9708;53.114;9.388;2023-08-30T12:24:06;23.80;99.90
19152;DHT22;9708;53.114;9.388;2023-08-30T12:26:33;23.10;99.90
19152;DHT22;9708;53.114;9.388;2023-08-30T12:29:00;22.40;99.90
19152;DHT22;9708;53.114;9.388;2023-08-30T12:31:28;22.10;99.90
19152;DHT22;9708;53.114;9.388;2023-08-30T12:33:56;21.70;99.90
19152;DHT22;9708;53.114;9.388;2023-08-30T12:36:23;21.70;99.90
19152;DHT22;9708;53.114;9.388;2023-08-30T12:38:50;21.70;99.90
19152;DHT22;9708;53.114;9.388;2023-08-30T12:41:17;21.50;99.90
19152;DHT22;9708;53.114;9.388;2023-08-30T12:43:46;21.50;99.90
19152;DHT22;9708;53.114;9.388;2023-08-30T12:46:12;21.40;99.90
19152;DHT22;9708;53.114;9.388;2023-08-30T12:48:41;21.20;99.90
19152;DHT22;9708;53.114;9.388;2023-08-30T12:51:07;21.00;99.90
19152;DHT22;9708;53.114;9.388;2023-08-30T12:53:34;21.00;99.90
19152;DHT22;9708;53.114;9.388;2023-08-30T12:56:01;20.90;99.90
19152;DHT22;9708;53.114;9.388;2023-08-30T12:58:30;20.80;99.90
19152;DHT22;9708;53.114;9.388;2023-08-30T13:00:56;21.00;99.90
19152;DHT22;9708;53.114;9.388;2023-08-30T13:03:23;20.90;99.90
19152;DHT22;9708;53.114;9.388;2023-08-30T13:05:51;21.10;99.90
19152;DHT22;9708;53.114;9.388;2023-08-30T13:08:18;20.80;99.90
19152;DHT22;9708;53.114;9.388;2023-08-30T13:10:45;20.50;99.90
19152;DHT22;9708;53.114;9.388;2023-08-30T13:13:11;20.50;99.90
19152;DHT22;9708;53.114;9.388;2023-08-30T13:15:39;20.30;99.90
19152;DHT22;9708;53.114;9.388;2023-08-30T13:18:05;20.30;99.90
19152;DHT22;9708;53.114;9.388;2023-08-30T13:20:32;20.30;99.90
19152;DHT22;9708;53.114;9.388;2023-08-30T13:23:00;20.30;99.90
19152;DHT22;9708;53.114;9.388;2023-08-30T13:25:28;20.30;99.90
19152;DHT22;9708;53.114;9.388;2023-08-30T13:27:55;20.10;99.90
19152;DHT22;9708;53.114;9.388;2023-08-30T13:30:22;20.00;99.90
19152;DHT22;9708;53.114;9.388;2023-08-30T13:32:49;19.90;99.90
19152;DHT22;9708;53.114;9.388;2023-08-30T13:35:15;19.90;99.90
19152;DHT22;9708;53.114;9.388;2023-08-30T13:37:42;19.90;99.90
19152;DHT22;9708;53.114;9.388;2023-08-30T13:40:11;20.00;99.90
19152;DHT22;9708;53.114;9.388;2023-08-30T13:42:38;20.00;99.90
19152;DHT22;9708;53.114;9.388;2023-08-30T13:45:05;19.90;99.90
19152;DHT22;9708;53.114;9.388;2023-08-30T13:47:34;19.90;99.90
19152;DHT22;9708;53.114;9.388;2023-08-30T13:50:02;19.90;99.90
19152;DHT22;9708;53.114;9.388;2023-08-30T13:52:29;20.00;99.90
19152;DHT22;9708;53.114;9.388;2023-08-30T13:54:56;20.10;99.90
19152;DHT22;9708;53.114;9.388;2023-08-30T13:57:24;20.00;99.90
19152;DHT22;9708;53.114;9.388;2023-08-30T13:59:51;19.80;99.90
19152;DHT22;9708;53.114;9.388;2023-08-30T14:02:17;19.80;99.90
19152;DHT22;9708;53.114;9.388;2023-08-30T14:04:44;19.70;99.90
19152;DHT22;9708;53.114;9.388;2023-08-30T14:07:11;19.60;99.90
19152;DHT22;9708;53.114;9.388;2023-08-30T14:09:38;19.60;99.90
19152;DHT22;9708;53.114;9.388;2023-08-30T14:12:05;19.60;99.90
19152;DHT22;9708;53.114;9.388;2023-08-30T14:14:33;19.60;99.90
19152;DHT22;9708;53.114;9.388;2023-08-30T14:17:00;19.60;99.90
19152;DHT22;9708;53.114;9.388;2023-08-30T14:19:27;19.60;99.90
19152;DHT22;9708;53.114;9.388;2023-08-30T14:21:55;19.60;99.90
19152;DHT22;9708;53.114;9.388;2023-08-30T14:24:23;19.60;99.90
19152;DHT22;9708;53.114;9.388;2023-08-30T14:26:50;19.50;99.90
19152;DHT22;9708;53.114;9.388;2023-08-30T14:29:20;19.50;99.90
19152;DHT22;9708;53.114;9.388;2023-08-30T14:31:49;19.40;99.90
19152;DHT22;9708;53.114;9.388;2023-08-30T14:34:16;19.40;99.90
19152;DHT22;9708;53.114;9.388;2023-08-30T14:36:42;19.30;99.90
19152;DHT22;9708;53.114;9.388;2023-08-30T14:39:11;19.30;99.90
19152;DHT22;9708;53.114;9.388;2023-08-30T14:41:38;19.20;99.90
19152;DHT22;9708;53.114;9.388;2023-08-30T14:44:05;19.10;99.90
19152;DHT22;9708;53.114;9.388;2023-08-30T14:46:33;19.10;99.90
19152;DHT22;9708;53.114;9.388;2023-08-30T14:49:01;19.10;99.90
19152;DHT22;9708;53.114;9.388;2023-08-30T14:51:28;19.00;99.90
19152;DHT22;9708;53.114;9.388;2023-08-30T14:53:55;19.00;99.90
19152;DHT22;9708;53.114;9.388;2023-08-30T14:56:22;19.00;99.90
19152;DHT22;9708;53.114;9.388;2023-08-30T14:58:48;18.90;99.90
19152;DHT22;9708;53.114;9.388;2023-08-30T15:01:16;18.90;99.90
19152;DHT22;9708;53.114;9.388;2023-08-30T15:03:43;18.90;99.90
19152;DHT22;9708;53.114;9.388;2023-08-30T15:06:11;18.80;99.90
19152;DHT22;9708;53.114;9.388;2023-08-30T15:08:38;18.70;99.90
19152;DHT22;9708;53.114;9.388;2023-08-30T15:11:05;18.50;99.90
19152;DHT22;9708;53.114;9.388;2023-08-30T15:13:33;18.40;99.90
19152;DHT22;9708;53.114;9.388;2023-08-30T15:16:00;18.30;99.90
19152;DHT22;9708;53.114;9.388;2023-08-30T15:18:27;18.20;99.90
19152;DHT22;9708;53.114;9.388;2023-08-30T15:20:54;18.20;99.90
19152;DHT22;9708;53.114;9.388;2023-08-30T15:23:22;18.00;99.90
19152;DHT22;9708;53.114;9.388;2023-08-30T15:25:49;17.90;99.90
19152;DHT22;9708;53.114;9.388;2023-08-30T15:28:16;17.70;99.90
19152;DHT22;9708;53.114;9.388;2023-08-30T15:30:43;17.70;99.90
19152;DHT22;9708;53.114;9.388;2023-08-30T15:33:11;17.60;99.90
19152;DHT22;9708;53.114;9.388;2023-08-30T15:35:38;17.50;99.90
19152;DHT22;9708;53.114;9.388;2023-08-30T15:38:05;17.60;99.90
19152;DHT22;9708;53.114;9.388;2023-08-30T15:40:34;17.60;99.90
19152;DHT22;9708;53.114;9.388;2023-08-30T15:43:01;17.50;99.90
19152;DHT22;9708;53.114;9.388;2023-08-30T15:45:28;17.40;99.90
19152;DHT22;9708;53.114;9.388;2023-08-30T15:47:55;17.30;99.90